sensor_id;sensor_type;location;lat;lon;timestamp;pressure;altitude;pressure_sealevel;temperature;humidity
55301;BME280;58302;51.446;-2.000;2023-04-16T00:02:19;101742.41;;;5.54;100.00
55301;BME280;58302;51.446;-2.000;2023-04-16T00:04:45;101739.53;;;5.55;100.00
55301;BME280;58302;51.446;-2.000;2023-04-16T00:07:12;101736.41;;;5.59;100.00
55301;BME280;58302;51.446;-2.000;2023-04-16T00:09:37;101744.50;;;5.59;100.00
55301;BME280;58302;51.446;-2.000;2023-04-16T00:12:03;101748.28;;;5.64;100.00
55301;BME280;58302;51.446;-2.000;2023-04-16T00:14:30;101749.53;;;5.68;100.00
55301;BME280;58302;51.446;-2.000;2023-04-16T00:16:56;101746.25;;;5.73;100.00
55301;BME280;58302;51.446;-2.000;2023-04-16T00:19:22;101743.34;;;5.74;100.00
55301;BME280;58302;51.446;-2.000;2023-04-16T00:21:48;101743.13;;;5.76;100.00
55301;BME280;58302;51.446;-2.000;2023-04-16T00:24:14;101741.25;;;5.76;100.00
55301;BME280;58302;51.446;-2.000;2023-04-16T00:26:40;101748.13;;;5.79;100.00
55301;BME280;58302;51.446;-2.000;2023-04-16T00:29:08;101741.50;;;5.81;100.00
55301;BME280;58302;51.446;-2.000;2023-04-16T00:31:35;101738.63;;;5.83;100.00
55301;BME280;58302;51.446;-2.000;2023-04-16T00:34:01;101736.53;;;5.85;100.00
55301;BME280;58302;51.446;-2.000;2023-04-16T00:36:27;101728.66;;;5.90;100.00
55301;BME280;58302;51.446;-2.000;2023-04-16T00:38:54;101723.75;;;5.94;100.00
55301;BME280;58302;51.446;-2.000;2023-04-16T00:41:21;101722.28;;;5.98;100.00
55301;BME280;58302;51.446;-2.000;2023-04-16T00:43:48;101721.66;;;6.02;100.00
55301;BME280;58302;51.446;-2.000;2023-04-16T00:46:22;101711.94;;;6.08;100.00
55301;BME280;58302;51.446;-2.000;2023-04-16T00:48:49;101714.84;;;6.13;100.00
55301;BME280;58302;51.446;-2.000;2023-04-16T00:51:17;101711.75;;;6.16;100.00
55301;BME280;58302;51.446;-2.000;2023-04-16T00:53:44;101720.25;;;6.20;100.00
55301;BME280;58302;51.446;-2.000;2023-04-16T00:56:10;101702.81;;;6.22;100.00
55301;BME280;58302;51.446;-2.000;2023-04-16T00:58:37;101702.63;;;6.24;100.00
55301;BME280;58302;51.446;-2.000;2023-04-16T01:01:04;101712.19;;;6.26;100.00
55301;BME280;58302;51.446;-2.000;2023-04-16T01:03:37;101704.09;;;6.26;100.00
55301;BME280;58302;51.446;-2.000;2023-04-16T01:06:05;101707.41;;;6.28;100.00
55301;BME280;58302;51.446;-2.000;2023-04-16T01:08:32;101708.66;;;6.32;100.00
55301;BME280;58302;51.446;-2.000;2023-04-16T01:10:58;101707.63;;;6.33;100.00
55301;BME280;58302;51.446;-2.000;2023-04-16T01:13:24;101706.78;;;6.33;100.00
55301;BME280;58302;51.446;-2.000;2023-04-16T01:15:50;101705.97;;;6.32;100.00
55301;BME280;58302;51.446;-2.000;2023-04-16T01:18:18;101705.97;;;6.32;100.00
55301;BME280;58302;51.446;-2.000;2023-04-16T01:20:45;101696.38;;;6.30;100.00
55301;BME280;58302;51.446;-2.000;2023-04-16T01:23:11;101698.69;;;6.26;100.00
55301;BME280;58302;51.446;-2.000;2023-04-16T01:25:38;101695.78;;;6.28;100.00
55301;BME280;58302;51.446;-2.000;2023-04-16T01:28:04;101699.91;;;6.30;100.00
55301;BME280;58302;51.446;-2.000;2023-04-16T01:30:30;101696.38;;;6.30;100.00
55301;BME280;58302;51.446;-2.000;2023-04-16T01:32:56;101703.44;;;6.31;100.00
55301;BME280;58302;51.446;-2.000;2023-04-16T01:35:23;101696.38;;;6.30;100.00
55301;BME280;58302;51.446;-2.000;2023-04-16T01:37:50;101692.03;;;6.29;100.00
55301;BME280;58302;51.446;-2.000;2023-04-16T01:40:16;101689.31;;;6.29;100.00
55301;BME280;58302;51.446;-2.000;2023-04-16T01:42:43;101684.97;;;6.28;100.00
55301;BME280;58302;51.446;-2.000;2023-04-16T01:45:09;101686.19;;;6.25;100.00
55301;BME280;58302;51.446;-2.000;2023-04-16T01:47:35;101687.47;;;6.23;100.00
55301;BME280;58302;51.446;-2.000;2023-04-16T01:50:03;101684.97;;;6.21;100.00
55301;BME280;58302;51.446;-2.000;2023-04-16T01:52:29;101687.25;;;6.18;100.00
55301;BME280;58302;51.446;-2.000;2023-04-16T01:54:55;101685.38;;;6.18;100.00
55301;BME280;58302;51.446;-2.000;2023-04-16T01:57:21;101681.00;;;6.17;100.00
55301;BME280;58302;51.446;-2.000;2023-04-16T01:59:47;101689.13;;;6.17;100.00
55301;BME280;58302;51.446;-2.000;2023-04-16T02:02:14;101687.47;;;6.16;100.00
55301;BME280;58302;51.446;-2.000;2023-04-16T02:04:43;101690.34;;;6.15;100.00
55301;BME280;58302;51.446;-2.000;2023-04-16T02:07:10;101687.63;;;6.15;100.00
55301;BME280;58302;51.446;-2.000;2023-04-16T02:09:38;101679.13;;;6.11;100.00
55301;BME280;58302;51.446;-2.000;2023-04-16T02:12:04;101682.44;;;6.06;100.00
55301;BME280;58302;51.446;-2.000;2023-04-16T02:14:31;101681.84;;;6.04;100.00
55301;BME280;58302;51.446;-2.000;2023-04-16T02:16:58;101682.84;;;6.03;100.00
55301;BME280;58302;51.446;-2.000;2023-04-16T02:19:25;101684.94;;;6.01;100.00
55301;BME280;58302;51.446;-2.000;2023-04-16T02:21:51;101690.31;;;6.01;100.00
55301;BME280;58302;51.446;-2.000;2023-04-16T02:24:18;101685.75;;;6.02;100.00
55301;BME280;58302;51.446;-2.000;2023-04-16T02:26:44;101689.50;;;6.01;100.00
55301;BME280;58302;51.446;-2.000;2023-04-16T02:29:10;101684.94;;;6.01;100.00
55301;BME280;58302;51.446;-2.000;2023-04-16T02:31:37;101692.81;;;6.03;100.00
55301;BME280;58302;51.446;-2.000;2023-04-16T02:34:04;101687.22;;;6.04;100.00
55301;BME280;58302;51.446;-2.000;2023-04-16T02:36:30;101691.59;;;6.05;100.00
55301;BME280;58302;51.446;-2.000;2023-04-16T02:38:57;101690.75;;;6.05;100.00
55301;BME280;58302;51.446;-2.000;2023-04-16T02:41:23;101687.63;;;6.08;100.00
55301;BME280;58302;51.446;-2.000;2023-04-16T02:43:49;101683.91;;;6.09;100.00
55301;BME280;58302;51.446;-2.000;2023-04-16T02:46:15;101690.56;;;6.13;100.00
55301;BME280;58302;51.446;-2.000;2023-04-16T02:48:41;101692.22;;;6.14;100.00
55301;BME280;58302;51.446;-2.000;2023-04-16T02:51:07;101685.16;;;6.13;100.00
55301;BME280;58302;51.446;-2.000;2023-04-16T02:53:33;101690.16;;;6.16;100.00
55301;BME280;58302;51.446;-2.000;2023-04-16T02:55:59;101689.50;;;6.14;100.00
55301;BME280;58302;51.446;-2.000;2023-04-16T02:58:25;101689.50;;;6.14;100.00
55301;BME280;58302;51.446;-2.000;2023-04-16T03:00:52;101694.72;;;6.16;100.00
55301;BME280;58302;51.446;-2.000;2023-04-16T03:03:18;101692.03;;;6.16;100.00
55301;BME280;58302;51.446;-2.000;2023-04-16T03:05:45;101689.72;;;6.13;100.00
55301;BME280;58302;51.446;-2.000;2023-04-16T03:08:11;101701.56;;;6.12;100.00
55301;BME280;58302;51.446;-2.000;2023-04-16T03:10:37;101692.81;;;6.10;100.00
55301;BME280;58302;51.446;-2.000;2023-04-16T03:13:03;101684.09;;;6.07;100.00
55301;BME280;58302;51.446;-2.000;2023-04-16T03:15:30;101689.28;;;6.09;100.00
55301;BME280;58302;51.446;-2.000;2023-04-16T03:17:56;101687.41;;;6.10;100.00
55301;BME280;58302;51.446;-2.000;2023-04-16T03:20:22;101690.97;;;6.10;100.00
55301;BME280;58302;51.446;-2.000;2023-04-16T03:22:48;101688.69;;;6.14;100.00
55301;BME280;58302;51.446;-2.000;2023-04-16T03:25:17;101689.31;;;6.16;100.00
55301;BME280;58302;51.446;-2.000;2023-04-16T03:27:43;101685.59;;;6.17;100.00
55301;BME280;58302;51.446;-2.000;2023-04-16T03:30:12;101689.94;;;6.18;100.00
55301;BME280;58302;51.446;-2.000;2023-04-16T03:32:39;101690.16;;;6.16;100.00
55301;BME280;58302;51.446;-2.000;2023-04-16T03:35:06;101685.16;;;6.13;100.00
55301;BME280;58302;51.446;-2.000;2023-04-16T03:37:33;101686.41;;;6.11;100.00
55301;BME280;58302;51.446;-2.000;2023-04-16T03:39:59;101689.13;;;6.11;100.00
55301;BME280;58302;51.446;-2.000;2023-04-16T03:42:25;101684.53;;;6.11;100.00
55301;BME280;58302;51.446;-2.000;2023-04-16T03:44:52;101693.25;;;6.13;100.00
55301;BME280;58302;51.446;-2.000;2023-04-16T03:47:19;101684.94;;;6.15;100.00
55301;BME280;58302;51.446;-2.000;2023-04-16T03:49:45;101683.06;;;6.15;100.00
55301;BME280;58302;51.446;-2.000;2023-04-16T03:52:11;101683.06;;;6.15;100.00
55301;BME280;58302;51.446;-2.000;2023-04-16T03:54:37;101681.22;;;6.16;100.00
55301;BME280;58302;51.446;-2.000;2023-04-16T03:57:03;101690.34;;;6.15;100.00
55301;BME280;58302;51.446;-2.000;2023-04-16T03:59:29;101677.88;;;6.14;100.00
55301;BME280;58302;51.446;-2.000;2023-04-16T04:01:55;101677.06;;;6.13;100.00
55301;BME280;58302;51.446;-2.000;2023-04-16T04:04:21;101674.16;;;6.15;100.00
55301;BME280;58302;51.446;-2.000;2023-04-16T04:06:47;101679.16;;;6.18;100.00
55301;BME280;58302;51.446;-2.000;2023-04-16T04:09:13;101679.97;;;6.18;100.00
55301;BME280;58302;51.446;-2.000;2023-04-16T04:11:41;101680.81;;;6.19;100.00
55301;BME280;58302;51.446;-2.000;2023-04-16T04:14:07;101678.09;;;6.19;100.00
55301;BME280;58302;51.446;-2.000;2023-04-16T04:16:33;101686.00;;;6.20;100.00
55301;BME280;58302;51.446;-2.000;2023-04-16T04:19:00;101677.06;;;6.20;100.00
55301;BME280;58302;51.446;-2.000;2023-04-16T04:21:27;101682.06;;;6.23;100.00
55301;BME280;58302;51.446;-2.000;2023-04-16T04:23:53;101680.81;;;6.25;100.00
55301;BME280;58302;51.446;-2.000;2023-04-16T04:26:19;101676.44;;;6.24;100.00
55301;BME280;58302;51.446;-2.000;2023-04-16T04:28:45;101681.63;;;6.26;100.00
55301;BME280;58302;51.446;-2.000;2023-04-16T04:31:12;101683.94;;;6.29;100.00
55301;BME280;58302;51.446;-2.000;2023-04-16T04:33:38;101682.28;;;6.28;100.00
55301;BME280;58302;51.446;-2.000;2023-04-16T04:36:05;101682.50;;;6.26;100.00
55301;BME280;58302;51.446;-2.000;2023-04-16T04:38:31;101679.97;;;6.25;100.00
55301;BME280;58302;51.446;-2.000;2023-04-16T04:40:57;101692.44;;;6.26;100.00
55301;BME280;58302;51.446;-2.000;2023-04-16T04:43:24;101690.59;;;6.26;100.00
55301;BME280;58302;51.446;-2.000;2023-04-16T04:45:50;101683.50;;;6.25;100.00
55301;BME280;58302;51.446;-2.000;2023-04-16T04:48:16;101687.03;;;6.26;100.00
55301;BME280;58302;51.446;-2.000;2023-04-16T04:50:43;101688.06;;;6.25;100.00
55301;BME280;58302;51.446;-2.000;2023-04-16T04:53:09;101681.84;;;6.24;100.00
55301;BME280;58302;51.446;-2.000;2023-04-16T04:55:39;101687.88;;;6.26;100.00
55301;BME280;58302;51.446;-2.000;2023-04-16T04:58:06;101682.06;;;6.23;100.00
55301;BME280;58302;51.446;-2.000;2023-04-16T05:00:32;101692.44;;;6.26;100.00
55301;BME280;58302;51.446;-2.000;2023-04-16T05:03:04;101688.91;;;6.25;100.00
55301;BME280;58302;51.446;-2.000;2023-04-16T05:05:31;101691.59;;;6.25;100.00
55301;BME280;58302;51.446;-2.000;2023-04-16T05:07:57;101693.06;;;6.28;100.00
55301;BME280;58302;51.446;-2.000;2023-04-16T05:10:23;101694.94;;;6.27;100.00
55301;BME280;58302;51.446;-2.000;2023-04-16T05:12:49;101692.03;;;6.29;100.00
55301;BME280;58302;51.446;-2.000;2023-04-16T05:15:15;101695.34;;;6.31;100.00
55301;BME280;58302;51.446;-2.000;2023-04-16T05:17:41;101696.00;;;6.33;100.00
55301;BME280;58302;51.446;-2.000;2023-04-16T05:20:09;101695.78;;;6.34;100.00
55301;BME280;58302;51.446;-2.000;2023-04-16T05:22:35;101697.44;;;6.36;100.00
55301;BME280;58302;51.446;-2.000;2023-04-16T05:25:01;101694.13;;;6.40;100.00
55301;BME280;58302;51.446;-2.000;2023-04-16T05:27:27;101699.31;;;6.42;100.00
55301;BME280;58302;51.446;-2.000;2023-04-16T05:29:53;101701.38;;;6.46;100.00
55301;BME280;58302;51.446;-2.000;2023-04-16T05:32:19;101704.50;;;6.50;100.00
55301;BME280;58302;51.446;-2.000;2023-04-16T05:34:45;101705.94;;;6.52;100.00
55301;BME280;58302;51.446;-2.000;2023-04-16T05:37:11;101707.00;;;6.58;100.00
55301;BME280;58302;51.446;-2.000;2023-04-16T05:39:37;101699.31;;;6.62;100.00
55301;BME280;58302;51.446;-2.000;2023-04-16T05:42:03;101703.25;;;6.66;100.00
55301;BME280;58302;51.446;-2.000;2023-04-16T05:44:29;101702.00;;;6.68;100.00
55301;BME280;58302;51.446;-2.000;2023-04-16T05:46:55;101704.50;;;6.70;100.00
55301;BME280;58302;51.446;-2.000;2023-04-16T05:49:22;101704.91;;;6.73;100.00
55301;BME280;58302;51.446;-2.000;2023-04-16T05:51:48;101703.69;;;6.76;100.00
55301;BME280;58302;51.446;-2.000;2023-04-16T05:54:14;101703.25;;;6.79;100.00
55301;BME280;58302;51.446;-2.000;2023-04-16T05:56:40;101700.13;;;6.82;100.00
55301;BME280;58302;51.446;-2.000;2023-04-16T05:59:06;101705.75;;;6.87;100.00
55301;BME280;58302;51.446;-2.000;2023-04-16T06:01:31;101703.84;;;6.94;100.00
55301;BME280;58302;51.446;-2.000;2023-04-16T06:03:57;101699.88;;;6.97;100.00
55301;BME280;58302;51.446;-2.000;2023-04-16T06:06:23;101703.63;;;7.02;100.00
55301;BME280;58302;51.446;-2.000;2023-04-16T06:08:49;101710.06;;;7.08;100.00
55301;BME280;58302;51.446;-2.000;2023-04-16T06:11:15;101705.06;;;7.11;100.00
55301;BME280;58302;51.446;-2.000;2023-04-16T06:13:41;101709.41;;;7.19;100.00
55301;BME280;58302;51.446;-2.000;2023-04-16T06:16:07;101710.03;;;7.28;100.00
55301;BME280;58302;51.446;-2.000;2023-04-16T06:18:33;101710.63;;;7.36;100.00
55301;BME280;58302;51.446;-2.000;2023-04-16T06:20:59;101709.97;;;7.48;100.00
55301;BME280;58302;51.446;-2.000;2023-04-16T06:23:25;101711.19;;;7.58;100.00
55301;BME280;58302;51.446;-2.000;2023-04-16T06:25:51;101705.09;;;7.70;100.00
55301;BME280;58302;51.446;-2.000;2023-04-16T06:28:17;101694.59;;;7.80;100.00
55301;BME280;58302;51.446;-2.000;2023-04-16T06:30:43;101700.00;;;7.86;100.00
55301;BME280;58302;51.446;-2.000;2023-04-16T06:33:09;101696.81;;;7.96;100.00
55301;BME280;58302;51.446;-2.000;2023-04-16T06:35:35;101693.03;;;8.04;100.00
55301;BME280;58302;51.446;-2.000;2023-04-16T06:38:01;101685.69;;;8.11;100.00
55301;BME280;58302;51.446;-2.000;2023-04-16T06:40:27;101669.38;;;8.17;100.00
55301;BME280;58302;51.446;-2.000;2023-04-16T06:42:53;101672.66;;;8.26;100.00
55301;BME280;58302;51.446;-2.000;2023-04-16T06:45:19;101667.19;;;8.33;100.00
55301;BME280;58302;51.446;-2.000;2023-04-16T06:47:45;101670.28;;;8.43;100.00
55301;BME280;58302;51.446;-2.000;2023-04-16T06:50:12;101669.63;;;8.48;100.00
55301;BME280;58302;51.446;-2.000;2023-04-16T06:52:38;101667.06;;;8.53;100.00
55301;BME280;58302;51.446;-2.000;2023-04-16T06:55:04;101650.59;;;8.54;100.00
55301;BME280;58302;51.446;-2.000;2023-04-16T06:57:32;101637.88;;;8.55;100.00
55301;BME280;58302;51.446;-2.000;2023-04-16T06:59:58;101653.91;;;8.56;100.00
55301;BME280;58302;51.446;-2.000;2023-04-16T07:02:24;101660.31;;;8.62;100.00
55301;BME280;58302;51.446;-2.000;2023-04-16T07:04:50;101649.03;;;8.65;100.00
55301;BME280;58302;51.446;-2.000;2023-04-16T07:07:17;101658.59;;;8.67;100.00
55301;BME280;58302;51.446;-2.000;2023-04-16T07:09:43;101657.94;;;8.72;100.00
55301;BME280;58302;51.446;-2.000;2023-04-16T07:12:09;101660.44;;;8.74;100.00
55301;BME280;58302;51.446;-2.000;2023-04-16T07:14:36;101660.97;;;8.82;100.00
55301;BME280;58302;51.446;-2.000;2023-04-16T07:17:02;101664.38;;;8.96;100.00
55301;BME280;58302;51.446;-2.000;2023-04-16T07:19:28;101667.84;;;9.03;100.00
55301;BME280;58302;51.446;-2.000;2023-04-16T07:22:00;101664.81;;;9.11;100.00
55301;BME280;58302;51.446;-2.000;2023-04-16T07:24:26;101670.09;;;9.24;100.00
55301;BME280;58302;51.446;-2.000;2023-04-16T07:26:52;101671.59;;;9.39;100.00
55301;BME280;58302;51.446;-2.000;2023-04-16T07:29:18;101669.56;;;9.53;100.00
55301;BME280;58302;51.446;-2.000;2023-04-16T07:31:44;101662.28;;;9.65;100.00
55301;BME280;58302;51.446;-2.000;2023-04-16T07:34:11;101670.97;;;9.73;100.00
55301;BME280;58302;51.446;-2.000;2023-04-16T07:36:37;101669.66;;;9.76;100.00
55301;BME280;58302;51.446;-2.000;2023-04-16T07:39:04;101675.59;;;9.85;100.00
55301;BME280;58302;51.446;-2.000;2023-04-16T07:41:31;101674.31;;;9.87;100.00
55301;BME280;58302;51.446;-2.000;2023-04-16T07:43:57;101679.03;;;9.92;100.00
55301;BME280;58302;51.446;-2.000;2023-04-16T07:46:23;101674.72;;;10.02;100.00
55301;BME280;58302;51.446;-2.000;2023-04-16T07:48:49;101678.53;;;10.13;100.00
55301;BME280;58302;51.446;-2.000;2023-04-16T07:51:15;101670.44;;;10.25;100.00
55301;BME280;58302;51.446;-2.000;2023-04-16T07:53:41;101670.81;;;10.40;100.00
55301;BME280;58302;51.446;-2.000;2023-04-16T07:56:08;101674.88;;;10.49;100.00
55301;BME280;58302;51.446;-2.000;2023-04-16T07:58:34;101676.03;;;10.53;100.00
55301;BME280;58302;51.446;-2.000;2023-04-16T08:01:00;101672.97;;;10.62;100.00
55301;BME280;58302;51.446;-2.000;2023-04-16T08:03:26;101676.19;;;10.94;100.00
55301;BME280;58302;51.446;-2.000;2023-04-16T08:05:52;101676.75;;;10.96;100.00
55301;BME280;58302;51.446;-2.000;2023-04-16T08:08:18;101675.09;;;11.06;100.00
55301;BME280;58302;51.446;-2.000;2023-04-16T08:10:45;101675.66;;;11.20;100.00
55301;BME280;58302;51.446;-2.000;2023-04-16T08:13:11;101669.34;;;11.31;100.00
55301;BME280;58302;51.446;-2.000;2023-04-16T08:15:38;101672.47;;;11.23;100.00
55301;BME280;58302;51.446;-2.000;2023-04-16T08:18:05;101679.78;;;11.34;100.00
55301;BME280;58302;51.446;-2.000;2023-04-16T08:20:38;101682.03;;;11.38;100.00
55301;BME280;58302;51.446;-2.000;2023-04-16T08:23:04;101678.44;;;11.49;100.00
55301;BME280;58302;51.446;-2.000;2023-04-16T08:25:30;101679.22;;;11.61;100.00
55301;BME280;58302;51.446;-2.000;2023-04-16T08:27:55;101681.69;;;11.63;100.00
55301;BME280;58302;51.446;-2.000;2023-04-16T08:30:21;101680.41;;;11.65;100.00
55301;BME280;58302;51.446;-2.000;2023-04-16T08:32:48;101680.06;;;11.61;100.00
55301;BME280;58302;51.446;-2.000;2023-04-16T08:35:14;101674.22;;;11.70;100.00
55301;BME280;58302;51.446;-2.000;2023-04-16T08:37:40;101682.78;;;11.61;100.00
55301;BME280;58302;51.446;-2.000;2023-04-16T08:40:09;101684.56;;;11.56;100.00
55301;BME280;58302;51.446;-2.000;2023-04-16T08:42:39;101686.94;;;11.52;100.00
55301;BME280;58302;51.446;-2.000;2023-04-16T08:45:13;101691.94;;;11.44;100.00
55301;BME280;58302;51.446;-2.000;2023-04-16T08:47:50;101697.94;;;11.57;100.00
55301;BME280;58302;51.446;-2.000;2023-04-16T08:50:23;101687.88;;;11.58;100.00
55301;BME280;58302;51.446;-2.000;2023-04-16T08:52:57;101681.75;;;11.79;100.00
55301;BME280;58302;51.446;-2.000;2023-04-16T08:55:47;101684.88;;;11.83;100.00
55301;BME280;58302;51.446;-2.000;2023-04-16T08:58:17;101682.03;;;12.06;100.00
55301;BME280;58302;51.446;-2.000;2023-04-16T09:00:44;101680.06;;;12.35;100.00
55301;BME280;58302;51.446;-2.000;2023-04-16T09:03:12;101684.78;;;12.40;100.00
55301;BME280;58302;51.446;-2.000;2023-04-16T09:05:38;101674.41;;;12.37;100.00
55301;BME280;58302;51.446;-2.000;2023-04-16T09:08:05;101672.72;;;12.36;100.00
55301;BME280;58302;51.446;-2.000;2023-04-16T09:10:32;101669.84;;;12.43;100.00
55301;BME280;58302;51.446;-2.000;2023-04-16T09:12:58;101677.94;;;12.54;100.00
55301;BME280;58302;51.446;-2.000;2023-04-16T09:15:24;101675.66;;;12.85;100.00
55301;BME280;58302;51.446;-2.000;2023-04-16T09:17:51;101671.66;;;13.09;100.00
55301;BME280;58302;51.446;-2.000;2023-04-16T09:20:17;101667.84;;;13.27;100.00
55301;BME280;58302;51.446;-2.000;2023-04-16T09:22:44;101664.69;;;13.35;100.00
55301;BME280;58302;51.446;-2.000;2023-04-16T09:25:11;101663.94;;;13.67;100.00
55301;BME280;58302;51.446;-2.000;2023-04-16T09:27:38;101660.34;;;14.15;100.00
55301;BME280;58302;51.446;-2.000;2023-04-16T09:30:24;101658.47;;;14.48;100.00
55301;BME280;58302;51.446;-2.000;2023-04-16T09:32:51;101662.41;;;14.62;100.00
55301;BME280;58302;51.446;-2.000;2023-04-16T09:35:18;101669.31;;;14.70;100.00
55301;BME280;58302;51.446;-2.000;2023-04-16T09:37:54;101656.09;;;14.57;100.00
55301;BME280;58302;51.446;-2.000;2023-04-16T09:40:26;101647.00;;;14.51;100.00
55301;BME280;58302;51.446;-2.000;2023-04-16T09:42:57;101660.75;;;14.29;100.00
55301;BME280;58302;51.446;-2.000;2023-04-16T09:45:30;101661.88;;;14.06;100.00
55301;BME280;58302;51.446;-2.000;2023-04-16T09:48:01;101664.50;;;13.91;100.00
55301;BME280;58302;51.446;-2.000;2023-04-16T09:50:30;101675.69;;;13.67;100.00
55301;BME280;58302;51.446;-2.000;2023-04-16T09:53:00;101669.19;;;13.68;100.00
55301;BME280;58302;51.446;-2.000;2023-04-16T09:55:27;101683.97;;;13.51;100.00
55301;BME280;58302;51.446;-2.000;2023-04-16T09:58:00;101677.19;;;13.31;100.00
55301;BME280;58302;51.446;-2.000;2023-04-16T10:00:28;101680.59;;;13.43;100.00
55301;BME280;58302;51.446;-2.000;2023-04-16T10:03:04;101678.44;;;13.45;100.00
55301;BME280;58302;51.446;-2.000;2023-04-16T10:05:31;101687.16;;;13.42;100.00
55301;BME280;58302;51.446;-2.000;2023-04-16T10:08:00;101697.81;;;13.66;100.00
55301;BME280;58302;51.446;-2.000;2023-04-16T10:10:27;101703.59;;;13.69;100.00
55301;BME280;58302;51.446;-2.000;2023-04-16T10:12:55;101697.47;;;13.84;100.00
55301;BME280;58302;51.446;-2.000;2023-04-16T10:15:22;101696.78;;;13.72;100.00
55301;BME280;58302;51.446;-2.000;2023-04-16T10:17:49;101703.13;;;13.78;100.00
55301;BME280;58302;51.446;-2.000;2023-04-16T10:20:16;101699.75;;;13.92;100.00
55301;BME280;58302;51.446;-2.000;2023-04-16T10:22:43;101699.44;;;13.89;100.00
55301;BME280;58302;51.446;-2.000;2023-04-16T10:25:09;101699.38;;;13.84;100.00
55301;BME280;58302;51.446;-2.000;2023-04-16T10:27:36;101692.25;;;13.83;100.00
55301;BME280;58302;51.446;-2.000;2023-04-16T10:30:04;101690.53;;;13.98;100.00
55301;BME280;58302;51.446;-2.000;2023-04-16T10:32:33;101694.72;;;13.84;100.00
55301;BME280;58302;51.446;-2.000;2023-04-16T10:34:59;101692.88;;;13.90;100.00
55301;BME280;58302;51.446;-2.000;2023-04-16T10:37:29;101692.75;;;14.02;100.00
55301;BME280;58302;51.446;-2.000;2023-04-16T10:39:58;101688.13;;;14.02;100.00
55301;BME280;58302;51.446;-2.000;2023-04-16T10:42:25;101688.63;;;13.99;100.00
55301;BME280;58302;51.446;-2.000;2023-04-16T10:44:52;101689.91;;;14.18;100.00
55301;BME280;58302;51.446;-2.000;2023-04-16T10:47:18;101686.66;;;14.48;100.00
55301;BME280;58302;51.446;-2.000;2023-04-16T10:49:46;101684.88;;;14.37;100.00
55301;BME280;58302;51.446;-2.000;2023-04-16T10:52:14;101686.91;;;14.47;100.00
55301;BME280;58302;51.446;-2.000;2023-04-16T10:54:45;101683.94;;;14.54;100.00
55301;BME280;58302;51.446;-2.000;2023-04-16T10:57:16;101684.94;;;14.74;100.00
55301;BME280;58302;51.446;-2.000;2023-04-16T10:59:43;101695.81;;;14.64;100.00
55301;BME280;58302;51.446;-2.000;2023-04-16T11:02:15;101689.97;;;14.56;100.00
55301;BME280;58302;51.446;-2.000;2023-04-16T11:04:46;101686.81;;;14.69;100.00
55301;BME280;58302;51.446;-2.000;2023-04-16T11:07:34;101697.91;;;14.89;100.00
55301;BME280;58302;51.446;-2.000;2023-04-16T11:10:05;101688.41;;;14.65;100.00
55301;BME280;58302;51.446;-2.000;2023-04-16T11:12:36;101688.50;;;14.75;100.00
55301;BME280;58302;51.446;-2.000;2023-04-16T11:17:41;101688.09;;;14.56;100.00
55301;BME280;58302;51.446;-2.000;2023-04-16T11:20:13;101692.44;;;14.52;100.00
55301;BME280;58302;51.446;-2.000;2023-04-16T11:22:40;101696.03;;;14.58;100.00
55301;BME280;58302;51.446;-2.000;2023-04-16T11:25:07;101687.91;;;14.68;100.00
55301;BME280;58302;51.446;-2.000;2023-04-16T11:27:33;101698.72;;;14.90;100.00
55301;BME280;58302;51.446;-2.000;2023-04-16T11:30:04;101691.00;;;14.82;100.00
55301;BME280;58302;51.446;-2.000;2023-04-16T11:32:32;101691.56;;;14.84;100.00
55301;BME280;58302;51.446;-2.000;2023-04-16T11:35:03;101692.75;;;14.98;100.00
55301;BME280;58302;51.446;-2.000;2023-04-16T11:37:35;101687.28;;;14.98;100.00
55301;BME280;58302;51.446;-2.000;2023-04-16T11:40:03;101694.59;;;14.87;100.00
55301;BME280;58302;51.446;-2.000;2023-04-16T11:42:32;101698.81;;;15.05;100.00
55301;BME280;58302;51.446;-2.000;2023-04-16T11:44:58;101691.13;;;15.02;100.00
55301;BME280;58302;51.446;-2.000;2023-04-16T11:47:30;101690.38;;;15.12;100.00
55301;BME280;58302;51.446;-2.000;2023-04-16T11:49:57;101673.44;;;14.72;100.00
55301;BME280;58302;51.446;-2.000;2023-04-16T11:52:39;101668.66;;;14.58;100.00
55301;BME280;58302;51.446;-2.000;2023-04-16T11:55:05;101676.28;;;14.93;100.00
55301;BME280;58302;51.446;-2.000;2023-04-16T11:57:31;101679.63;;;15.00;100.00
55301;BME280;58302;51.446;-2.000;2023-04-16T11:59:58;101673.31;;;14.94;100.00
55301;BME280;58302;51.446;-2.000;2023-04-16T12:02:41;101681.91;;;14.44;100.00
55301;BME280;58302;51.446;-2.000;2023-04-16T12:05:27;101679.91;;;14.61;100.00
55301;BME280;58302;51.446;-2.000;2023-04-16T12:07:53;101687.78;;;14.53;100.00
55301;BME280;58302;51.446;-2.000;2023-04-16T12:10:20;101685.69;;;14.38;100.00
55301;BME280;58302;51.446;-2.000;2023-04-16T12:12:46;101685.41;;;14.34;100.00
55301;BME280;58302;51.446;-2.000;2023-04-16T12:15:11;101686.19;;;14.57;100.00
55301;BME280;58302;51.446;-2.000;2023-04-16T12:17:38;101687.53;;;14.96;100.00
55301;BME280;58302;51.446;-2.000;2023-04-16T12:20:11;101686.78;;;14.64;100.00
55301;BME280;58302;51.446;-2.000;2023-04-16T12:22:40;101681.34;;;14.69;100.00
55301;BME280;58302;51.446;-2.000;2023-04-16T12:25:16;101684.06;;;14.69;100.00
55301;BME280;58302;51.446;-2.000;2023-04-16T12:27:46;101684.34;;;14.67;100.00
55301;BME280;58302;51.446;-2.000;2023-04-16T12:30:16;101684.13;;;14.74;100.00
55301;BME280;58302;51.446;-2.000;2023-04-16T12:32:43;101681.81;;;14.61;100.00
55301;BME280;58302;51.446;-2.000;2023-04-16T12:35:10;101692.75;;;14.61;100.00
55301;BME280;58302;51.446;-2.000;2023-04-16T12:37:37;101683.53;;;14.67;100.00
55301;BME280;58302;51.446;-2.000;2023-04-16T12:40:04;101686.06;;;14.79;100.00